createdAt,value
2017-01-31T00:00:42.465Z,12.9
2017-01-31T00:01:51.766Z,12.89
2017-01-31T00:03:01.056Z,12.83
2017-01-31T00:04:10.351Z,12.87
2017-01-31T00:05:20.130Z,12.89
2017-01-31T00:06:29.895Z,12.92
2017-01-31T00:07:40.068Z,12.95
2017-01-31T00:08:49.801Z,12.92
2017-01-31T00:09:59.087Z,12.9
2017-01-31T00:11:08.432Z,12.89
2017-01-31T00:12:18.187Z,12.96
2017-01-31T00:13:27.478Z,12.83
2017-01-31T00:14:37.219Z,12.86
2017-01-31T00:15:46.509Z,12.86
2017-01-31T00:16:55.852Z,12.96
2017-01-31T00:18:06.026Z,12.86
2017-01-31T00:19:15.318Z,12.85
2017-01-31T00:20:24.612Z,12.9
2017-01-31T00:21:34.352Z,12.92
2017-01-31T00:22:44.139Z,12.92
2017-01-31T00:23:53.434Z,12.9
2017-01-31T00:25:03.168Z,12.93
2017-01-31T00:26:12.453Z,12.89
2017-01-31T00:27:22.623Z,12.95
2017-01-31T00:28:31.965Z,13
2017-01-31T00:29:41.712Z,12.86
2017-01-31T00:30:51.007Z,12.95
2017-01-31T00:32:00.737Z,12.93
2017-01-31T00:33:10.476Z,12.86
2017-01-31T00:34:19.821Z,12.83
2017-01-31T00:35:29.559Z,12.86
2017-01-31T00:36:38.851Z,12.86
2017-01-31T00:37:48.588Z,12.89
2017-01-31T00:38:58.763Z,12.83
2017-01-31T00:40:08.106Z,12.83
2017-01-31T00:41:17.396Z,12.9
2017-01-31T00:42:27.130Z,12.85
2017-01-31T00:43:36.458Z,12.82
2017-01-31T00:44:46.193Z,12.9
2017-01-31T00:45:55.541Z,12.79
2017-01-31T00:47:05.276Z,12.86
2017-01-31T00:48:14.574Z,12.86
2017-01-31T00:49:23.874Z,12.82
2017-01-31T00:50:33.170Z,12.86
2017-01-31T00:51:42.959Z,12.86
2017-01-31T00:52:52.689Z,12.9
2017-01-31T00:54:02.418Z,12.93
2017-01-31T00:55:12.154Z,12.87
2017-01-31T00:56:21.448Z,12.83
2017-01-31T00:57:30.789Z,12.79
2017-01-31T00:58:40.081Z,12.95
2017-01-31T00:59:50.256Z,12.85
2017-01-31T01:00:59.997Z,12.85
2017-01-31T01:02:09.733Z,12.86
2017-01-31T01:03:19.078Z,12.86
2017-01-31T01:04:29.693Z,12.82
2017-01-31T01:05:39.865Z,12.87
2017-01-31T01:06:50.039Z,12.79
2017-01-31T01:07:59.333Z,12.79
2017-01-31T01:09:08.672Z,12.83
2017-01-31T01:10:18.416Z,12.95
2017-01-31T01:11:28.588Z,12.75
2017-01-31T01:12:38.321Z,12.82
2017-01-31T01:13:48.057Z,12.85
2017-01-31T01:14:57.843Z,12.83
2017-01-31T01:16:07.142Z,12.83
2017-01-31T01:17:16.437Z,12.79
2017-01-31T01:18:25.730Z,12.87
2017-01-31T01:19:35.466Z,12.87
2017-01-31T01:20:45.253Z,12.97
2017-01-31T01:21:55.428Z,12.86
2017-01-31T01:23:05.167Z,12.86
2017-01-31T01:24:14.452Z,12.78
2017-01-31T01:25:24.630Z,12.77
2017-01-31T01:26:33.974Z,12.86
2017-01-31T01:27:44.178Z,12.77
2017-01-31T01:28:53.914Z,12.85
2017-01-31T01:30:03.204Z,12.78
2017-01-31T01:31:12.498Z,12.78
2017-01-31T01:32:22.284Z,12.78
2017-01-31T01:33:31.582Z,12.86
2017-01-31T01:34:40.870Z,12.78
2017-01-31T01:35:50.628Z,12.77
2017-01-31T01:37:00.365Z,12.78
2017-01-31T01:38:10.146Z,12.77
2017-01-31T01:39:19.432Z,12.75
2017-01-31T01:40:29.188Z,12.82
2017-01-31T01:41:38.925Z,12.82
2017-01-31T01:42:48.661Z,12.78
2017-01-31T01:43:58.021Z,12.75
2017-01-31T01:45:08.191Z,12.79
2017-01-31T01:46:17.922Z,12.82
2017-01-31T01:47:27.208Z,12.77
2017-01-31T01:48:36.937Z,12.75
2017-01-31T01:49:46.286Z,12.67
2017-01-31T01:50:56.019Z,12.79
2017-01-31T01:52:05.311Z,12.92
2017-01-31T01:53:15.042Z,12.79
2017-01-31T01:54:25.219Z,12.67
2017-01-31T01:55:34.556Z,12.71
2017-01-31T01:56:44.750Z,12.7
2017-01-31T01:57:54.049Z,12.71
2017-01-31T01:59:04.220Z,12.65
2017-01-31T02:00:13.517Z,12.86
2017-01-31T02:01:22.857Z,12.64
2017-01-31T02:02:32.148Z,12.77
2017-01-31T02:03:41.435Z,12.67
2017-01-31T02:04:50.730Z,12.65
2017-01-31T02:06:00.026Z,12.74
2017-01-31T02:07:09.368Z,12.7
2017-01-31T02:08:18.661Z,12.65
2017-01-31T02:09:27.954Z,12.71
2017-01-31T02:10:37.243Z,12.64
2017-01-31T02:11:46.537Z,12.67
2017-01-31T02:12:56.762Z,12.62
2017-01-31T02:14:06.660Z,12.77
2017-01-31T02:15:15.958Z,12.64
2017-01-31T02:16:25.694Z,12.71
2017-01-31T02:17:35.431Z,12.68
2017-01-31T02:18:44.804Z,12.72
2017-01-31T02:19:54.099Z,12.64
2017-01-31T02:21:04.280Z,12.62
2017-01-31T02:22:13.575Z,12.68
2017-01-31T02:23:23.312Z,12.6
2017-01-31T02:24:33.090Z,12.7
2017-01-31T02:25:42.382Z,12.7
2017-01-31T02:26:51.672Z,12.7
2017-01-31T02:28:01.405Z,12.71
2017-01-31T02:29:11.137Z,12.72
2017-01-31T02:30:20.487Z,12.68
2017-01-31T02:31:29.777Z,12.65
2017-01-31T02:32:39.510Z,12.68
2017-01-31T02:33:48.804Z,12.7
2017-01-31T02:34:58.983Z,12.72
2017-01-31T02:36:08.318Z,12.71
2017-01-31T02:37:17.606Z,12.72
2017-01-31T02:38:26.900Z,12.68
2017-01-31T02:39:36.189Z,12.67
2017-01-31T02:40:45.492Z,12.72
2017-01-31T02:41:55.719Z,12.65
2017-01-31T02:43:05.008Z,12.62
2017-01-31T02:44:14.741Z,12.62
2017-01-31T02:45:24.951Z,12.62
2017-01-31T02:46:34.246Z,12.65
2017-01-31T02:47:44.025Z,12.65
2017-01-31T02:48:53.321Z,12.6
2017-01-31T02:50:03.056Z,12.67
2017-01-31T02:51:12.800Z,12.62
2017-01-31T02:52:22.535Z,12.67
2017-01-31T02:53:31.893Z,12.64
2017-01-31T02:54:41.615Z,12.6
2017-01-31T02:55:50.907Z,12.62
2017-01-31T02:57:01.082Z,12.6
2017-01-31T02:58:10.822Z,12.7
2017-01-31T02:59:20.160Z,12.59
2017-01-31T03:00:29.900Z,12.64
2017-01-31T03:01:39.637Z,12.62
2017-01-31T03:02:48.923Z,12.64
2017-01-31T03:03:58.681Z,12.65
2017-01-31T03:05:09.061Z,12.62
2017-01-31T03:06:19.237Z,12.6
2017-01-31T03:07:29.412Z,12.59
2017-01-31T03:08:39.146Z,12.59
2017-01-31T03:09:48.430Z,12.62
2017-01-31T03:10:58.810Z,12.6
2017-01-31T03:12:08.981Z,12.6
2017-01-31T03:13:18.719Z,12.62
2017-01-31T03:14:28.455Z,12.59
2017-01-31T03:15:38.628Z,12.59
2017-01-31T03:16:47.966Z,12.64
2017-01-31T03:17:57.259Z,12.57
2017-01-31T03:19:07.003Z,12.56
2017-01-31T03:20:17.173Z,12.6
2017-01-31T03:21:26.940Z,12.59
2017-01-31T03:22:36.730Z,12.6
2017-01-31T03:23:46.901Z,12.59
2017-01-31T03:24:57.072Z,12.62
2017-01-31T03:26:07.254Z,12.53
2017-01-31T03:27:16.987Z,12.6
2017-01-31T03:28:26.334Z,12.62
2017-01-31T03:29:36.075Z,12.53
2017-01-31T03:30:46.247Z,12.59
2017-01-31T03:31:56.416Z,12.56
2017-01-31T03:33:06.150Z,12.64
2017-01-31T03:34:15.491Z,12.6
2017-01-31T03:35:25.224Z,12.65
2017-01-31T03:36:34.517Z,12.62
2017-01-31T03:37:44.695Z,12.53
2017-01-31T03:38:54.420Z,12.65
2017-01-31T03:40:04.225Z,12.6
2017-01-31T03:41:13.513Z,12.57
2017-01-31T03:42:23.692Z,12.6
2017-01-31T03:43:33.424Z,12.6
2017-01-31T03:44:42.719Z,12.62
2017-01-31T03:45:52.943Z,12.65
2017-01-31T03:47:02.238Z,12.5
2017-01-31T03:48:11.968Z,12.62
2017-01-31T03:49:21.701Z,12.59
2017-01-31T03:50:31.443Z,12.67
2017-01-31T03:51:41.224Z,12.57
2017-01-31T03:52:50.960Z,12.62
2017-01-31T03:54:01.131Z,12.68
2017-01-31T03:55:10.871Z,12.5
2017-01-31T03:56:20.605Z,12.62
2017-01-31T03:57:29.950Z,12.46
2017-01-31T03:58:39.691Z,12.56
2017-01-31T03:59:49.867Z,12.56
2017-01-31T04:01:00.038Z,12.59
2017-01-31T04:02:09.775Z,12.59
2017-01-31T04:03:19.121Z,12.59
2017-01-31T04:04:28.857Z,12.53
2017-01-31T04:05:38.594Z,12.59
2017-01-31T04:06:47.890Z,12.54
2017-01-31T04:07:58.079Z,12.56
2017-01-31T04:09:07.860Z,12.53
2017-01-31T04:10:18.471Z,12.65
2017-01-31T04:11:28.207Z,12.59
2017-01-31T04:12:38.376Z,12.56
2017-01-31T04:13:48.553Z,12.57
2017-01-31T04:14:58.775Z,12.54
2017-01-31T04:16:08.509Z,12.59
2017-01-31T04:17:18.683Z,12.6
2017-01-31T04:18:28.424Z,12.6
2017-01-31T04:19:38.601Z,12.52
2017-01-31T04:20:47.957Z,12.56
2017-01-31T04:21:57.702Z,12.59
2017-01-31T04:23:07.433Z,12.53
2017-01-31T04:24:17.165Z,12.6
2017-01-31T04:25:27.339Z,12.56
2017-01-31T04:26:37.216Z,12.64
2017-01-31T04:27:46.942Z,12.59
2017-01-31T04:28:56.678Z,12.64
2017-01-31T04:30:06.412Z,12.46
2017-01-31T04:31:16.587Z,12.62
2017-01-31T04:32:26.366Z,12.56
2017-01-31T04:33:36.100Z,12.62
2017-01-31T04:34:45.832Z,12.62
2017-01-31T04:35:55.566Z,12.45
2017-01-31T04:37:05.308Z,12.53
2017-01-31T04:38:14.674Z,12.54
2017-01-31T04:39:24.848Z,12.64
2017-01-31T04:40:34.585Z,12.64
2017-01-31T04:41:44.755Z,12.56
2017-01-31T04:42:54.493Z,12.64
2017-01-31T04:44:03.833Z,12.56
2017-01-31T04:45:14.011Z,12.62
2017-01-31T04:46:23.744Z,12.6
2017-01-31T04:47:33.478Z,12.53
2017-01-31T04:48:43.210Z,12.57
2017-01-31T04:49:53.448Z,12.64
2017-01-31T04:51:03.185Z,12.54
2017-01-31T04:52:12.918Z,12.54
2017-01-31T04:53:22.648Z,12.57
2017-01-31T04:54:32.383Z,12.62
2017-01-31T04:55:42.602Z,12.64
2017-01-31T04:56:52.770Z,12.64
2017-01-31T04:58:02.944Z,12.6
2017-01-31T04:59:12.669Z,12.47
2017-01-31T05:00:22.848Z,12.6
2017-01-31T05:01:32.652Z,12.59
2017-01-31T05:02:42.381Z,12.59
2017-01-31T05:03:52.121Z,12.57
2017-01-31T05:05:01.848Z,12.64
2017-01-31T05:06:11.138Z,12.59
2017-01-31T05:07:20.942Z,12.53
2017-01-31T05:08:30.671Z,12.59
2017-01-31T05:09:40.404Z,12.57
2017-01-31T05:10:49.689Z,12.53
2017-01-31T05:11:59.422Z,12.59
2017-01-31T05:13:09.204Z,12.57
2017-01-31T05:14:19.373Z,12.64
2017-01-31T05:15:29.109Z,12.62
2017-01-31T05:16:38.844Z,12.62
2017-01-31T05:17:49.012Z,12.64
2017-01-31T05:18:58.798Z,12.62
2017-01-31T05:20:08.530Z,12.6
2017-01-31T05:21:17.824Z,12.6
2017-01-31T05:22:27.569Z,12.64
2017-01-31T05:23:37.741Z,12.62
2017-01-31T05:24:47.182Z,12.6
2017-01-31T05:25:56.916Z,12.59
2017-01-31T05:27:07.106Z,12.6
2017-01-31T05:28:17.283Z,12.56
2017-01-31T05:29:27.012Z,12.57
2017-01-31T05:30:36.890Z,12.53
2017-01-31T05:31:46.639Z,12.62
2017-01-31T05:32:56.372Z,12.59
2017-01-31T05:34:06.549Z,12.56
2017-01-31T05:35:16.721Z,12.59
2017-01-31T05:36:26.943Z,12.6
2017-01-31T05:37:37.116Z,12.59
2017-01-31T05:38:46.846Z,12.52
2017-01-31T05:39:56.586Z,12.62
2017-01-31T05:41:06.316Z,12.64
2017-01-31T05:42:16.097Z,12.57
2017-01-31T05:43:25.378Z,12.59
2017-01-31T05:44:35.111Z,12.62
2017-01-31T05:45:44.843Z,12.56
2017-01-31T05:46:54.580Z,12.57
2017-01-31T05:48:05.391Z,12.6
2017-01-31T05:49:15.568Z,12.57
2017-01-31T05:50:25.743Z,12.57
2017-01-31T05:51:36.353Z,12.62
2017-01-31T05:52:46.111Z,12.6
2017-01-31T05:53:55.890Z,12.57
2017-01-31T05:55:06.514Z,12.64
2017-01-31T05:56:17.130Z,12.59
2017-01-31T05:57:26.860Z,12.56
2017-01-31T05:58:36.631Z,12.59
2017-01-31T05:59:47.298Z,12.59
2017-01-31T06:00:57.046Z,12.64
2017-01-31T06:02:07.219Z,12.56
2017-01-31T06:03:16.956Z,12.62
2017-01-31T06:04:26.687Z,12.54
2017-01-31T06:05:36.027Z,12.56
2017-01-31T06:06:45.757Z,12.56
2017-01-31T06:07:55.494Z,12.56
2017-01-31T06:09:05.226Z,12.57
2017-01-31T06:10:15.398Z,12.59
2017-01-31T06:11:25.624Z,12.59
2017-01-31T06:12:35.359Z,12.62
2017-01-31T06:13:45.136Z,12.6
2017-01-31T06:14:54.873Z,12.65
2017-01-31T06:16:05.045Z,12.53
2017-01-31T06:17:15.271Z,12.6
2017-01-31T06:18:25.003Z,12.56
2017-01-31T06:19:34.738Z,12.59
2017-01-31T06:20:44.934Z,12.57
2017-01-31T06:21:54.664Z,12.59
2017-01-31T06:23:04.885Z,12.57
2017-01-31T06:24:14.615Z,12.57
2017-01-31T06:25:24.788Z,12.56
2017-01-31T06:26:34.524Z,12.6
2017-01-31T06:27:44.253Z,12.6
2017-01-31T06:28:54.034Z,12.57
2017-01-31T06:30:04.231Z,12.6
2017-01-31T06:31:13.957Z,12.56
2017-01-31T06:32:23.692Z,12.59
2017-01-31T06:33:33.424Z,12.59
2017-01-31T06:34:43.208Z,12.57
2017-01-31T06:35:53.382Z,12.6
2017-01-31T06:37:03.557Z,12.56
2017-01-31T06:38:13.741Z,12.56
2017-01-31T06:39:23.484Z,12.57
2017-01-31T06:40:33.709Z,12.59
2017-01-31T06:41:43.876Z,12.59
2017-01-31T06:42:53.609Z,12.57
2017-01-31T06:44:03.342Z,12.53
2017-01-31T06:45:13.072Z,12.59
2017-01-31T06:46:22.846Z,12.57
2017-01-31T06:47:32.150Z,12.57
2017-01-31T06:48:41.878Z,12.54
2017-01-31T06:49:52.051Z,12.49
2017-01-31T06:51:01.342Z,12.59
2017-01-31T06:52:11.118Z,12.56
2017-01-31T06:53:20.858Z,12.53
2017-01-31T06:54:30.589Z,12.59
2017-01-31T06:55:40.786Z,12.56
2017-01-31T06:56:51.402Z,12.59
2017-01-31T06:58:01.630Z,12.53
2017-01-31T06:59:11.372Z,12.56
2017-01-31T07:00:21.113Z,12.64
2017-01-31T07:01:30.843Z,12.57
2017-01-31T07:02:41.017Z,12.64
2017-01-31T07:03:50.798Z,12.56
2017-01-31T07:05:00.531Z,12.6
2017-01-31T07:06:10.268Z,12.57
2017-01-31T07:07:20.009Z,12.59
2017-01-31T07:08:29.742Z,12.56
2017-01-31T07:09:39.967Z,12.6
2017-01-31T07:10:50.134Z,12.53
2017-01-31T07:11:59.862Z,12.56
2017-01-31T07:13:09.592Z,12.54
2017-01-31T07:14:19.765Z,12.56
2017-01-31T07:15:30.094Z,12.59
2017-01-31T07:16:40.270Z,12.56
2017-01-31T07:17:50.437Z,12.59
2017-01-31T07:19:00.610Z,12.57
2017-01-31T07:20:10.784Z,12.57
2017-01-31T07:21:21.009Z,12.56
2017-01-31T07:22:30.746Z,12.56
2017-01-31T07:23:40.497Z,12.59
2017-01-31T07:24:49.791Z,12.59
2017-01-31T07:25:59.958Z,12.53
2017-01-31T07:27:09.757Z,12.53
2017-01-31T07:28:20.364Z,12.54
2017-01-31T07:29:30.095Z,12.53
2017-01-31T07:30:39.830Z,12.57
2017-01-31T07:31:49.563Z,12.62
2017-01-31T07:32:59.344Z,12.62
2017-01-31T07:34:09.517Z,12.57
2017-01-31T07:35:18.807Z,12.59
2017-01-31T07:36:28.534Z,12.59
2017-01-31T07:37:38.272Z,12.56
2017-01-31T07:38:48.063Z,12.6
2017-01-31T07:39:57.798Z,12.59
2017-01-31T07:41:07.978Z,12.52
2017-01-31T07:42:17.742Z,12.53
2017-01-31T07:43:27.034Z,12.56
2017-01-31T07:44:37.260Z,12.59
2017-01-31T07:45:46.992Z,12.54
2017-01-31T07:46:57.179Z,12.56
2017-01-31T07:48:06.916Z,12.52
2017-01-31T07:49:16.649Z,12.52
2017-01-31T07:50:26.874Z,12.57
2017-01-31T07:51:36.622Z,12.56
2017-01-31T07:52:46.353Z,12.59
2017-01-31T07:53:56.538Z,12.62
2017-01-31T07:55:06.710Z,12.56
2017-01-31T07:56:16.937Z,12.59
2017-01-31T07:57:26.669Z,12.54
2017-01-31T07:58:37.283Z,12.56
2017-01-31T07:59:47.019Z,12.6
2017-01-31T08:00:56.749Z,12.59
2017-01-31T08:02:06.534Z,12.54
2017-01-31T08:03:16.708Z,12.54
2017-01-31T08:04:26.446Z,12.62
2017-01-31T08:05:36.617Z,12.57
2017-01-31T08:06:46.351Z,12.57
2017-01-31T08:07:56.576Z,12.59
2017-01-31T08:09:06.314Z,12.54
2017-01-31T08:10:16.048Z,12.57
2017-01-31T08:11:26.224Z,12.53
2017-01-31T08:12:35.961Z,12.62
2017-01-31T08:13:45.954Z,12.64
2017-01-31T08:14:55.691Z,12.53
2017-01-31T08:16:05.424Z,12.62
2017-01-31T08:17:15.154Z,12.56
2017-01-31T08:18:24.890Z,12.57
2017-01-31T08:19:34.680Z,12.62
2017-01-31T08:20:44.412Z,12.54
2017-01-31T08:21:54.153Z,12.57
2017-01-31T08:23:03.920Z,12.57
2017-01-31T08:24:13.653Z,12.59
2017-01-31T08:25:23.429Z,12.47
2017-01-31T08:26:33.171Z,12.62
2017-01-31T08:27:43.344Z,12.54
2017-01-31T08:28:53.078Z,12.46
2017-01-31T08:30:03.253Z,12.56
2017-01-31T08:31:13.031Z,12.64
2017-01-31T08:32:22.325Z,12.67
2017-01-31T08:33:32.063Z,12.62
2017-01-31T08:34:42.236Z,12.59
2017-01-31T08:35:51.974Z,12.64
2017-01-31T08:37:01.769Z,12.59
2017-01-31T08:38:11.507Z,12.57
2017-01-31T08:39:21.678Z,12.65
2017-01-31T08:40:31.845Z,12.64
2017-01-31T08:41:41.586Z,12.59
2017-01-31T08:42:51.808Z,12.57
2017-01-31T08:44:01.540Z,12.62
2017-01-31T08:45:11.274Z,12.59
2017-01-31T08:46:21.451Z,12.62
2017-01-31T08:47:31.623Z,12.68
2017-01-31T08:48:41.405Z,12.59
2017-01-31T08:49:51.138Z,12.65
2017-01-31T08:51:00.895Z,12.57
2017-01-31T08:52:11.065Z,12.68
2017-01-31T08:53:20.806Z,12.6
2017-01-31T08:54:30.598Z,12.64
2017-01-31T08:55:40.771Z,12.6
2017-01-31T08:56:50.509Z,12.64
2017-01-31T08:58:00.683Z,12.62
2017-01-31T08:59:10.412Z,12.57
2017-01-31T09:00:20.192Z,12.6
2017-01-31T09:01:29.926Z,12.67
2017-01-31T09:02:39.216Z,12.62
2017-01-31T09:03:48.949Z,12.62
2017-01-31T09:04:58.699Z,12.67
2017-01-31T09:06:08.934Z,12.67
2017-01-31T09:07:19.547Z,12.62
2017-01-31T09:08:30.165Z,12.7
2017-01-31T09:09:39.907Z,12.65
2017-01-31T09:10:50.528Z,12.75
2017-01-31T09:12:00.321Z,12.71
2017-01-31T09:13:10.494Z,12.67
2017-01-31T09:14:19.779Z,12.79
2017-01-31T09:15:29.516Z,12.71
2017-01-31T09:16:39.686Z,12.68
2017-01-31T09:17:49.028Z,12.68
2017-01-31T09:18:58.771Z,12.78
2017-01-31T09:20:08.946Z,12.62
2017-01-31T09:21:18.679Z,12.77
2017-01-31T09:22:28.442Z,12.7
2017-01-31T09:23:38.677Z,12.68
2017-01-31T09:24:48.857Z,12.68
2017-01-31T09:25:58.597Z,12.7
2017-01-31T09:27:08.767Z,12.89
2017-01-31T09:28:18.949Z,12.68
2017-01-31T09:29:28.929Z,12.82
2017-01-31T09:30:39.546Z,12.7
2017-01-31T09:31:49.726Z,12.74
2017-01-31T09:32:59.906Z,12.79
2017-01-31T09:34:09.641Z,12.77
2017-01-31T09:35:19.860Z,12.71
2017-01-31T09:36:29.597Z,12.72
2017-01-31T09:37:40.210Z,12.78
2017-01-31T09:38:49.944Z,12.75
2017-01-31T09:39:59.681Z,12.7
2017-01-31T09:41:09.466Z,12.92
2017-01-31T09:42:19.195Z,12.77
2017-01-31T09:43:29.386Z,12.82
2017-01-31T09:44:39.566Z,12.83
2017-01-31T09:45:49.755Z,12.74
2017-01-31T09:46:59.535Z,12.79
2017-01-31T09:48:09.273Z,12.87
2017-01-31T09:49:19.005Z,12.78
2017-01-31T09:50:28.739Z,12.89
2017-01-31T09:51:38.912Z,12.79
2017-01-31T09:52:49.141Z,12.75
2017-01-31T09:54:00.200Z,12.82
2017-01-31T09:55:10.380Z,12.83
2017-01-31T09:56:20.988Z,12.78
2017-01-31T09:57:30.727Z,12.85
2017-01-31T09:58:40.511Z,12.78
2017-01-31T09:59:50.247Z,12.75
2017-01-31T10:00:59.984Z,12.83
2017-01-31T10:02:09.713Z,12.82
2017-01-31T10:03:19.455Z,12.83
2017-01-31T10:04:28.802Z,12.83
2017-01-31T10:05:38.985Z,12.85
2017-01-31T10:06:48.722Z,12.85
2017-01-31T10:07:58.460Z,12.87
2017-01-31T10:09:08.189Z,12.83
2017-01-31T10:10:17.970Z,12.82
2017-01-31T10:11:28.149Z,12.83
2017-01-31T10:12:39.206Z,12.9
2017-01-31T10:13:49.380Z,12.96
2017-01-31T10:14:59.991Z,12.95
2017-01-31T10:16:09.772Z,12.93
2017-01-31T10:17:19.509Z,12.85
2017-01-31T10:18:29.244Z,12.86
2017-01-31T10:19:38.979Z,12.97
2017-01-31T10:20:49.162Z,12.83
2017-01-31T10:21:58.946Z,12.92
2017-01-31T10:23:08.677Z,12.9
2017-01-31T10:24:18.415Z,12.95
2017-01-31T10:25:28.151Z,12.93
2017-01-31T10:26:38.766Z,12.95
2017-01-31T10:27:48.553Z,12.83
2017-01-31T10:28:58.724Z,12.92
2017-01-31T10:30:08.455Z,12.86
2017-01-31T10:31:18.634Z,12.87
2017-01-31T10:32:28.372Z,12.9
2017-01-31T10:33:38.156Z,12.86
2017-01-31T10:34:48.329Z,12.9
2017-01-31T10:35:58.071Z,12.9
2017-01-31T10:37:07.809Z,12.86
2017-01-31T10:38:17.985Z,12.87
2017-01-31T10:39:28.212Z,12.9
2017-01-31T10:40:38.390Z,12.95
2017-01-31T10:41:48.559Z,12.86
2017-01-31T10:42:58.740Z,12.85
2017-01-31T10:44:08.486Z,12.89
2017-01-31T10:45:18.710Z,12.9
2017-01-31T10:46:28.889Z,12.9
2017-01-31T10:47:39.058Z,12.96
2017-01-31T10:48:48.795Z,12.9
2017-01-31T10:49:58.537Z,12.96
2017-01-31T10:51:08.318Z,12.92
2017-01-31T10:52:18.057Z,12.93
2017-01-31T10:53:27.784Z,12.92
2017-01-31T10:54:37.965Z,12.86
2017-01-31T10:55:48.134Z,12.89
2017-01-31T10:56:57.471Z,12.89
2017-01-31T10:58:07.202Z,12.95
2017-01-31T10:59:16.500Z,12.96
2017-01-31T11:00:26.675Z,12.95
2017-01-31T11:01:36.412Z,12.96
2017-01-31T11:02:46.642Z,12.96
2017-01-31T11:03:56.818Z,12.97
2017-01-31T11:05:06.551Z,12.95
2017-01-31T11:06:15.840Z,12.95
2017-01-31T11:07:26.018Z,12.89
2017-01-31T11:08:35.353Z,12.89
2017-01-31T11:09:45.529Z,12.87
2017-01-31T11:10:55.261Z,13.05
2017-01-31T11:12:05.435Z,13
2017-01-31T11:13:15.196Z,13.01
2017-01-31T11:14:24.980Z,12.96
2017-01-31T11:15:35.149Z,12.95
2017-01-31T11:16:45.318Z,12.95
2017-01-31T11:17:55.060Z,12.97
2017-01-31T11:19:04.355Z,13.03
2017-01-31T11:20:14.140Z,12.96
2017-01-31T11:21:24.320Z,13.03
2017-01-31T11:22:34.057Z,12.93
2017-01-31T11:23:44.240Z,13.05
2017-01-31T11:24:54.448Z,13.07
2017-01-31T11:26:04.241Z,13
2017-01-31T11:27:13.976Z,13
2017-01-31T11:28:24.150Z,13.04
2017-01-31T11:29:33.455Z,13
2017-01-31T11:30:43.189Z,13.04
2017-01-31T11:31:53.859Z,13.04
2017-01-31T11:33:03.591Z,13.04
2017-01-31T11:34:13.760Z,13.1
2017-01-31T11:35:23.493Z,13.11
2017-01-31T11:36:33.229Z,13.1
2017-01-31T11:37:43.452Z,13.01
2017-01-31T11:38:53.189Z,13.15
2017-01-31T11:40:03.359Z,13.04
2017-01-31T11:41:13.536Z,13
2017-01-31T11:42:22.832Z,13.05
2017-01-31T11:43:32.617Z,13.04
2017-01-31T11:44:42.352Z,13
2017-01-31T11:45:52.088Z,13.01
2017-01-31T11:47:01.381Z,13.11
2017-01-31T11:48:11.118Z,13.01
2017-01-31T11:49:20.900Z,13.07
2017-01-31T11:50:31.091Z,13.11
2017-01-31T11:51:40.824Z,13.05
2017-01-31T11:52:50.999Z,13.12
2017-01-31T11:54:01.172Z,13.05
2017-01-31T11:55:11.396Z,13.05
2017-01-31T11:56:21.126Z,13.12
2017-01-31T11:57:31.748Z,13.05
2017-01-31T11:58:41.956Z,13.07
2017-01-31T11:59:51.685Z,13.12
2017-01-31T12:01:01.475Z,13
2017-01-31T12:02:11.210Z,13.04
2017-01-31T12:03:21.827Z,13.04
2017-01-31T12:04:32.004Z,12.97
2017-01-31T12:05:42.182Z,13.01
2017-01-31T12:06:52.855Z,13.03
2017-01-31T12:08:03.470Z,12.93
2017-01-31T12:09:13.195Z,13.01
2017-01-31T12:10:23.379Z,12.95
2017-01-31T12:11:33.555Z,13.01
2017-01-31T12:12:43.342Z,13.04
2017-01-31T12:13:53.516Z,13
2017-01-31T12:15:03.247Z,12.95
2017-01-31T12:16:12.542Z,13
2017-01-31T12:17:22.280Z,12.97
2017-01-31T12:18:32.963Z,13
2017-01-31T12:19:42.698Z,12.96
2017-01-31T12:20:52.430Z,12.95
2017-01-31T12:22:02.165Z,13.04
2017-01-31T12:23:11.893Z,12.97
2017-01-31T12:24:21.667Z,13.01
2017-01-31T12:25:31.403Z,13.03
2017-01-31T12:26:41.139Z,13.04
2017-01-31T12:27:51.761Z,13.19
2017-01-31T12:29:01.935Z,13.07
2017-01-31T12:30:11.880Z,13.11
2017-01-31T12:31:21.625Z,13.12
2017-01-31T12:32:31.355Z,13.08
2017-01-31T12:33:41.084Z,13.08
2017-01-31T12:34:50.824Z,13.08
2017-01-31T12:36:01.047Z,13.05
2017-01-31T12:37:11.218Z,13.11
2017-01-31T12:38:21.836Z,13.05
2017-01-31T12:39:32.010Z,13.11
2017-01-31T12:40:41.748Z,13.17
2017-01-31T12:41:51.528Z,13.19
2017-01-31T12:43:01.259Z,13.12
2017-01-31T12:44:11.875Z,13.04
2017-01-31T12:45:22.047Z,13.17
2017-01-31T12:46:31.777Z,13.01
2017-01-31T12:47:41.999Z,13.04
2017-01-31T12:48:51.740Z,13.03
2017-01-31T12:50:01.493Z,13.17
2017-01-31T12:51:10.810Z,13.12
2017-01-31T12:52:20.543Z,13.1
2017-01-31T12:53:30.328Z,13.03
2017-01-31T12:54:40.941Z,13.04
2017-01-31T12:55:51.114Z,13.01
2017-01-31T12:57:01.298Z,13.08
2017-01-31T12:58:11.461Z,13.08
2017-01-31T12:59:20.798Z,13.04
2017-01-31T13:00:30.971Z,13.05
2017-01-31T13:01:40.708Z,13.01
2017-01-31T13:02:50.882Z,13.03
2017-01-31T13:04:01.055Z,13.05
2017-01-31T13:05:11.280Z,12.96
2017-01-31T13:06:21.018Z,13.01
2017-01-31T13:07:31.202Z,12.97
2017-01-31T13:08:40.936Z,12.96
2017-01-31T13:09:50.668Z,12.96
2017-01-31T13:11:00.446Z,13.01
2017-01-31T13:12:10.174Z,12.85
2017-01-31T13:13:19.469Z,12.95
2017-01-31T13:14:29.202Z,12.97
2017-01-31T13:15:38.935Z,12.97
2017-01-31T13:16:49.169Z,12.83
2017-01-31T13:17:58.908Z,12.93
2017-01-31T13:19:09.519Z,12.96
2017-01-31T13:20:19.256Z,12.89
2017-01-31T13:21:29.435Z,12.87
2017-01-31T13:22:39.221Z,12.89
2017-01-31T13:23:49.400Z,12.96
2017-01-31T13:24:59.605Z,12.89
2017-01-31T13:26:09.782Z,12.87
2017-01-31T13:27:19.519Z,12.96
2017-01-31T13:28:29.304Z,12.87
2017-01-31T13:29:39.029Z,12.82
2017-01-31T13:30:48.763Z,12.82
2017-01-31T13:31:58.496Z,12.83
2017-01-31T13:33:08.227Z,12.87
2017-01-31T13:34:17.567Z,12.89
2017-01-31T13:35:27.310Z,12.83
2017-01-31T13:36:37.505Z,12.82
2017-01-31T13:37:47.236Z,12.9
2017-01-31T13:38:57.851Z,12.78
2017-01-31T13:40:07.639Z,12.74
2017-01-31T13:41:17.813Z,12.77
2017-01-31T13:42:27.538Z,12.79
2017-01-31T13:43:37.745Z,12.87
2017-01-31T13:44:47.483Z,12.85
2017-01-31T13:45:57.702Z,12.74
2017-01-31T13:47:07.435Z,12.78
2017-01-31T13:48:16.725Z,12.79
2017-01-31T13:49:26.454Z,12.75
2017-01-31T13:50:37.069Z,12.74
2017-01-31T13:51:47.296Z,12.82
2017-01-31T13:52:57.915Z,12.75
2017-01-31T13:54:08.090Z,12.75
2017-01-31T13:55:17.828Z,12.78
2017-01-31T13:56:27.560Z,12.7
2017-01-31T13:57:36.914Z,12.71
2017-01-31T13:58:47.088Z,12.77
2017-01-31T13:59:56.820Z,12.85
2017-01-31T14:01:06.994Z,12.68
2017-01-31T14:02:17.173Z,12.7
2017-01-31T14:03:27.400Z,12.64
2017-01-31T14:04:37.131Z,12.67
2017-01-31T14:05:46.863Z,12.65
2017-01-31T14:06:56.595Z,12.62
2017-01-31T14:08:07.656Z,12.67
2017-01-31T14:09:17.887Z,12.68
2017-01-31T14:10:28.055Z,12.78
2017-01-31T14:11:38.665Z,12.71
2017-01-31T14:12:48.405Z,12.68
2017-01-31T14:13:58.140Z,12.7
2017-01-31T14:15:07.475Z,12.67
2017-01-31T14:16:17.209Z,12.7
2017-01-31T14:17:27.827Z,12.68
2017-01-31T14:18:38.000Z,12.77
2017-01-31T14:19:48.177Z,12.71
2017-01-31T14:20:57.951Z,12.7
2017-01-31T14:22:08.122Z,12.6
2017-01-31T14:23:18.297Z,12.71
2017-01-31T14:24:28.025Z,12.67
2017-01-31T14:25:37.764Z,12.62
2017-01-31T14:26:48.025Z,12.65
2017-01-31T14:27:57.758Z,12.71
2017-01-31T14:29:07.486Z,12.67
2017-01-31T14:30:17.220Z,12.68
2017-01-31T14:31:26.960Z,12.7
2017-01-31T14:32:36.738Z,12.59
2017-01-31T14:33:46.468Z,12.6
2017-01-31T14:34:55.766Z,12.67
2017-01-31T14:36:05.944Z,12.62
2017-01-31T14:37:16.120Z,12.71
2017-01-31T14:38:25.903Z,12.59
2017-01-31T14:39:36.518Z,12.6
2017-01-31T14:40:46.286Z,12.64
2017-01-31T14:41:55.579Z,12.6
2017-01-31T14:43:05.759Z,12.62
2017-01-31T14:44:15.986Z,12.64
2017-01-31T14:45:25.715Z,12.57
2017-01-31T14:46:35.444Z,12.62
2017-01-31T14:47:45.177Z,12.62
2017-01-31T14:48:55.346Z,12.67
2017-01-31T14:50:05.570Z,12.53
2017-01-31T14:51:15.308Z,12.67
2017-01-31T14:52:25.041Z,12.56
2017-01-31T14:53:34.771Z,12.46
2017-01-31T14:54:44.504Z,12.53
2017-01-31T14:55:54.290Z,12.67
2017-01-31T14:57:04.018Z,12.59
2017-01-31T14:58:13.315Z,12.59
2017-01-31T14:59:23.526Z,12.54
2017-01-31T15:00:33.265Z,12.59
2017-01-31T15:01:43.047Z,12.62
2017-01-31T15:02:52.336Z,12.59
2017-01-31T15:04:02.065Z,12.62